Time,TemperatureF,DewpointF,PressureIn,WindDirection,WindDirectionDegrees,WindSpeedMPH,WindSpeedGustMPH,Humidity,HourlyPrecipIn,Conditions,Clouds,dailyrainin,SolarRadiationWatts/m^2,SoftwareType,DateUTC
2013-01-31 06:01:00,-6.0,-12.0,-100.00,NW,311,11.0,15.0,75,0.00,,,0.00,0.000000,,2013-01-31 13:01:00,
2013-01-31 07:01:00,-6.0,-12.0,-100.00,WNW,282,8.0,15.0,75,0.00,,,-99.99,0.000000,,2013-01-31 14:01:00,
2013-01-31 07:32:00,-6.0,-12.0,-100.00,WNW,282,8.0,15.0,75,0.00,,,-99.99,0.000000,,2013-01-31 14:32:00,
2013-01-31 07:42:00,-6.0,-12.0,-100.00,WNW,282,8.0,15.0,75,0.00,,,-99.99,0.000000,,2013-01-31 14:42:00,
2013-01-31 07:52:00,-6.0,-12.0,-100.00,WNW,282,8.0,15.0,75,0.00,,,-99.99,0.000000,,2013-01-31 14:52:00,
2013-01-31 08:01:00,-5.0,-11.0,-100.00,WSW,252,10.0,12.0,76,0.00,,,0.00,6.000000,,2013-01-31 15:01:00,
2013-01-31 08:32:00,-5.0,-11.0,-100.00,WSW,252,10.0,12.0,76,0.00,,,0.00,6.000000,,2013-01-31 15:32:00,
2013-01-31 08:42:00,-5.0,-11.0,-100.00,WSW,252,10.0,12.0,76,0.00,,,0.00,6.000000,,2013-01-31 15:42:00,
2013-01-31 08:52:00,-5.0,-11.0,-100.00,WSW,252,10.0,12.0,76,0.00,,,0.00,6.000000,,2013-01-31 15:52:00,
2013-01-31 09:01:00,-2.0,-8.0,-100.00,West,278,8.0,16.0,76,0.00,,,0.00,48.000000,,2013-01-31 16:01:00,
2013-01-31 09:33:00,-2.0,-8.0,-100.00,West,278,8.0,16.0,76,0.00,,,0.00,48.000000,,2013-01-31 16:33:00,
2013-01-31 09:42:00,-2.0,-8.0,-100.00,West,278,8.0,16.0,76,0.00,,,0.00,48.000000,,2013-01-31 16:42:00,
2013-01-31 09:52:00,-2.0,-8.0,-100.00,West,278,8.0,16.0,76,0.00,,,0.00,48.000000,,2013-01-31 16:52:00,
2013-01-31 10:01:00,1.0,-4.0,-100.00,West,263,5.0,12.0,77,0.00,,,0.00,110.000000,,2013-01-31 17:01:00,
2013-01-31 10:32:00,1.0,-4.0,-100.00,West,263,5.0,12.0,77,0.00,,,0.00,110.000000,,2013-01-31 17:32:00,
2013-01-31 10:44:00,1.0,-4.0,-100.00,West,263,5.0,12.0,77,0.00,,,0.00,110.000000,,2013-01-31 17:44:00,
2013-01-31 10:53:00,1.0,-4.0,-100.00,West,263,5.0,12.0,77,0.00,,,0.00,110.000000,,2013-01-31 17:53:00,
2013-01-31 11:01:00,5.0,0.0,-100.00,WSW,246,7.0,9.0,78,0.00,,,0.00,223.000000,,2013-01-31 18:01:00,
2013-01-31 11:32:00,5.0,0.0,-100.00,WSW,246,7.0,9.0,78,0.00,,,0.00,223.000000,,2013-01-31 18:32:00,
2013-01-31 11:43:00,5.0,0.0,-100.00,WSW,246,7.0,9.0,78,0.00,,,0.00,223.000000,,2013-01-31 18:43:00,
2013-01-31 11:52:00,5.0,0.0,-100.00,WSW,246,7.0,9.0,78,0.00,,,0.00,223.000000,,2013-01-31 18:52:00,
2013-01-31 12:01:00,8.0,3.0,-100.00,SW,226,7.0,9.0,79,0.00,,,0.00,277.000000,,2013-01-31 19:01:00,
2013-01-31 12:33:00,8.0,3.0,-100.00,SW,226,7.0,9.0,79,0.00,,,0.00,277.000000,,2013-01-31 19:33:00,
2013-01-31 12:43:00,8.0,3.0,-100.00,SW,226,7.0,9.0,79,0.00,,,0.00,277.000000,,2013-01-31 19:43:00,
2013-01-31 12:52:00,8.0,3.0,-100.00,SW,226,7.0,9.0,79,0.00,,,0.00,277.000000,,2013-01-31 19:52:00,
2013-01-31 13:01:00,9.0,4.0,-100.00,SSW,207,9.0,12.0,81,0.00,,,0.00,259.000000,,2013-01-31 20:01:00,
2013-01-31 13:22:00,9.0,4.0,-100.00,SSW,207,9.0,12.0,81,0.00,,,0.00,259.000000,,2013-01-31 20:22:00,
2013-01-31 13:32:00,9.0,4.0,-100.00,SSW,207,9.0,12.0,81,0.00,,,0.00,259.000000,,2013-01-31 20:32:00,
2013-01-31 13:42:00,9.0,4.0,-100.00,SSW,207,9.0,12.0,81,0.00,,,0.00,259.000000,,2013-01-31 20:42:00,
2013-01-31 13:52:00,9.0,4.0,-100.00,SSW,207,9.0,12.0,81,0.00,,,0.00,259.000000,,2013-01-31 20:52:00,
2013-01-31 14:01:00,11.0,6.0,-100.00,SW,215,8.0,14.0,81,0.00,,,0.00,240.000000,,2013-01-31 21:01:00,
2013-01-31 14:32:00,11.0,6.0,-100.00,SW,215,8.0,14.0,81,0.00,,,0.00,240.000000,,2013-01-31 21:32:00,
2013-01-31 14:42:00,11.0,6.0,-100.00,SW,215,8.0,14.0,81,0.00,,,0.00,240.000000,,2013-01-31 21:42:00,
2013-01-31 14:52:00,11.0,6.0,-100.00,SW,215,8.0,14.0,81,0.00,,,0.00,240.000000,,2013-01-31 21:52:00,
2013-01-31 15:33:00,16.0,12.0,-100.00,WSW,245,18.0,23.0,85,0.00,,,0.00,210.000000,,2013-01-31 22:33:00,
2013-01-31 15:42:00,16.0,12.0,-100.00,WSW,245,18.0,23.0,85,0.00,,,0.00,210.000000,,2013-01-31 22:42:00,
2013-01-31 15:52:00,16.0,12.0,-100.00,WSW,245,18.0,23.0,85,0.00,,,0.00,210.000000,,2013-01-31 22:52:00,
2013-01-31 16:32:00,19.0,16.0,-100.00,West,259,20.0,26.0,87,0.00,,,0.00,164.000000,,2013-01-31 23:32:00,
2013-01-31 17:01:00,21.0,18.0,-100.00,West,267,17.0,24.0,88,-99.99,,,0.00,65.000000,,2013-02-01 00:01:00,
2013-01-31 17:22:00,21.0,18.0,-100.00,West,267,17.0,24.0,88,-99.99,,,0.00,65.000000,,2013-02-01 00:22:00,
2013-01-31 17:32:00,21.0,18.0,-100.00,West,267,17.0,24.0,88,-99.99,,,0.00,65.000000,,2013-02-01 00:32:00,
2013-01-31 18:01:00,23.0,20.0,-100.00,West,277,16.0,22.0,87,-99.99,,,0.00,2.000000,,2013-02-01 01:01:00,
2013-01-31 18:32:00,23.0,20.0,-100.00,West,277,16.0,22.0,87,-99.99,,,0.00,2.000000,,2013-02-01 01:32:00,
2013-01-31 19:32:00,24.0,20.0,-100.00,West,263,15.0,20.0,86,-99.99,,,0.00,0.000000,,2013-02-01 02:32:00,
2013-01-31 20:01:00,25.0,22.0,-100.00,WSW,251,23.0,26.0,87,-99.99,,,0.00,0.000000,,2013-02-01 03:01:00,
2013-01-31 20:33:00,25.0,22.0,-100.00,WSW,251,23.0,26.0,87,-99.99,,,0.00,0.000000,,2013-02-01 03:33:00,
2013-01-31 21:01:00,26.0,23.0,-100.00,WSW,253,22.0,26.0,87,-99.99,,,0.00,0.000000,,2013-02-01 04:01:00,
2013-01-31 21:32:00,26.0,23.0,-100.00,WSW,253,22.0,26.0,87,-99.99,,,0.00,0.000000,,2013-02-01 04:32:00,
2013-01-31 22:01:00,28.0,24.0,-100.00,West,268,16.0,26.0,83,0.00,,,0.00,0.000000,,2013-02-01 05:01:00,
2013-01-31 22:32:00,28.0,24.0,-100.00,West,268,16.0,26.0,83,0.00,,,0.00,0.000000,,2013-02-01 05:32:00,
2013-01-31 23:01:00,29.0,24.0,-100.00,West,266,17.0,26.0,81,-99.99,,,0.00,0.000000,,2013-02-01 06:01:00,
2013-01-31 23:32:00,29.0,24.0,-100.00,West,266,17.0,26.0,81,-99.99,,,0.00,0.000000,,2013-02-01 06:32:00,